sensor_id;sensor_type;location;lat;lon;timestamp;pressure;altitude;pressure_sealevel;temperature;humidity
5284;BME280;15377;48.540;9.268;2023-08-07T00:02:22;97301.09;;;11.27;100.00
5284;BME280;15377;48.540;9.268;2023-08-07T00:04:48;97311.06;;;11.39;100.00
5284;BME280;15377;48.540;9.268;2023-08-07T00:07:13;97285.63;;;11.29;100.00
5284;BME280;15377;48.540;9.268;2023-08-07T00:09:38;97299.19;;;11.33;100.00
5284;BME280;15377;48.540;9.268;2023-08-07T00:12:04;97304.44;;;11.31;100.00
5284;BME280;15377;48.540;9.268;2023-08-07T00:14:29;97313.31;;;11.40;100.00
5284;BME280;15377;48.540;9.268;2023-08-07T00:16:55;97314.56;;;11.39;100.00
5284;BME280;15377;48.540;9.268;2023-08-07T00:19:20;97306.16;;;11.28;100.00
5284;BME280;15377;48.540;9.268;2023-08-07T00:21:46;97305.38;;;11.28;100.00
5284;BME280;15377;48.540;9.268;2023-08-07T00:24:11;97301.09;;;11.27;100.00
5284;BME280;15377;48.540;9.268;2023-08-07T00:26:36;97322.28;;;11.35;100.00
5284;BME280;15377;48.540;9.268;2023-08-07T00:29:02;97297.81;;;11.23;100.00
5284;BME280;15377;48.540;9.268;2023-08-07T00:31:27;97303.31;;;11.23;100.00
5284;BME280;15377;48.540;9.268;2023-08-07T00:33:56;97315.44;;;11.31;100.00
5284;BME280;15377;48.540;9.268;2023-08-07T00:36:22;97298.00;;;11.19;100.00
5284;BME280;15377;48.540;9.268;2023-08-07T00:38:47;97310.88;;;11.28;100.00
5284;BME280;15377;48.540;9.268;2023-08-07T00:41:12;97304.25;;;11.20;100.00
5284;BME280;15377;48.540;9.268;2023-08-07T00:43:38;97315.06;;;11.23;100.00
5284;BME280;15377;48.540;9.268;2023-08-07T00:46:03;97318.47;;;11.33;100.00
5284;BME280;15377;48.540;9.268;2023-08-07T00:48:29;97313.75;;;11.33;100.00
5284;BME280;15377;48.540;9.268;2023-08-07T00:50:55;97317.72;;;11.32;100.00
5284;BME280;15377;48.540;9.268;2023-08-07T00:53:21;97319.16;;;11.28;100.00
5284;BME280;15377;48.540;9.268;2023-08-07T00:55:46;97312.06;;;11.07;100.00
5284;BME280;15377;48.540;9.268;2023-08-07T00:58:13;97318.50;;;11.18;100.00
5284;BME280;15377;48.540;9.268;2023-08-07T01:00:38;97329.53;;;11.18;100.00
5284;BME280;15377;48.540;9.268;2023-08-07T01:03:07;97321.53;;;11.20;100.00
5284;BME280;15377;48.540;9.268;2023-08-07T01:05:32;97323.25;;;11.18;100.00
5284;BME280;15377;48.540;9.268;2023-08-07T01:07:58;97328.03;;;11.17;100.00
5284;BME280;15377;48.540;9.268;2023-08-07T01:13:05;97316.63;;;11.10;100.00
5284;BME280;15377;48.540;9.268;2023-08-07T01:15:36;97328.97;;;11.00;100.00
5284;BME280;15377;48.540;9.268;2023-08-07T01:18:03;97329.25;;;11.02;100.00
5284;BME280;15377;48.540;9.268;2023-08-07T01:20:30;97334.47;;;11.00;100.00
5284;BME280;15377;48.540;9.268;2023-08-07T01:22:56;97336.28;;;11.03;100.00
5284;BME280;15377;48.540;9.268;2023-08-07T01:25:21;97334.75;;;11.02;100.00
5284;BME280;15377;48.540;9.268;2023-08-07T01:28:02;97338.59;;;10.90;100.00
5284;BME280;15377;48.540;9.268;2023-08-07T01:30:38;97346.44;;;10.97;100.00
5284;BME280;15377;48.540;9.268;2023-08-07T01:33:16;97347.41;;;10.94;100.00
5284;BME280;15377;48.540;9.268;2023-08-07T01:35:47;97337.34;;;10.91;100.00
5284;BME280;15377;48.540;9.268;2023-08-07T01:38:15;97327.38;;;10.79;100.00
5284;BME280;15377;48.540;9.268;2023-08-07T01:40:42;97346.84;;;10.90;100.00
5284;BME280;15377;48.540;9.268;2023-08-07T01:43:08;97347.59;;;10.90;100.00
5284;BME280;15377;48.540;9.268;2023-08-07T01:45:34;97344.09;;;10.90;100.00
5284;BME280;15377;48.540;9.268;2023-08-07T01:48:00;97328.97;;;10.85;100.00
5284;BME280;15377;48.540;9.268;2023-08-07T01:50:25;97360.03;;;10.86;100.00
5284;BME280;15377;48.540;9.268;2023-08-07T01:52:51;97350.81;;;10.89;100.00
5284;BME280;15377;48.540;9.268;2023-08-07T01:55:18;97340.75;;;10.86;100.00
5284;BME280;15377;48.540;9.268;2023-08-07T01:57:44;97340.56;;;10.89;100.00
5284;BME280;15377;48.540;9.268;2023-08-07T02:00:10;97332.13;;;10.79;100.00
5284;BME280;15377;48.540;9.268;2023-08-07T02:02:36;97345.47;;;10.85;100.00
5284;BME280;15377;48.540;9.268;2023-08-07T02:05:01;97358.41;;;10.94;100.00
5284;BME280;15377;48.540;9.268;2023-08-07T02:07:27;97368.88;;;10.90;100.00
5284;BME280;15377;48.540;9.268;2023-08-07T02:09:52;97370.06;;;10.89;100.00
5284;BME280;15377;48.540;9.268;2023-08-07T02:12:18;97372.38;;;10.90;100.00
5284;BME280;15377;48.540;9.268;2023-08-07T02:14:43;97368.66;;;10.79;100.00
5284;BME280;15377;48.540;9.268;2023-08-07T02:17:08;97351.28;;;10.73;100.00
5284;BME280;15377;48.540;9.268;2023-08-07T02:19:34;97379.75;;;10.84;100.00
5284;BME280;15377;48.540;9.268;2023-08-07T02:22:00;97378.63;;;10.91;100.00
5284;BME280;15377;48.540;9.268;2023-08-07T02:24:26;97388.41;;;10.92;100.00
5284;BME280;15377;48.540;9.268;2023-08-07T02:26:51;97374.66;;;10.92;100.00
5284;BME280;15377;48.540;9.268;2023-08-07T02:29:17;97365.03;;;10.73;100.00
5284;BME280;15377;48.540;9.268;2023-08-07T02:31:42;97371.69;;;10.81;100.00
5284;BME280;15377;48.540;9.268;2023-08-07T02:34:07;97388.59;;;10.88;100.00
5284;BME280;15377;48.540;9.268;2023-08-07T02:36:33;97386.22;;;10.96;100.00
5284;BME280;15377;48.540;9.268;2023-08-07T02:38:58;97368.88;;;10.90;100.00
5284;BME280;15377;48.540;9.268;2023-08-07T02:41:23;97376.06;;;10.88;100.00
5284;BME280;15377;48.540;9.268;2023-08-07T02:43:49;97371.13;;;10.77;100.00
5284;BME280;15377;48.540;9.268;2023-08-07T02:46:14;97377.78;;;10.85;100.00
5284;BME280;15377;48.540;9.268;2023-08-07T02:48:40;97387.81;;;10.88;100.00
5284;BME280;15377;48.540;9.268;2023-08-07T02:51:05;97383.66;;;10.78;100.00
5284;BME280;15377;48.540;9.268;2023-08-07T02:53:31;97400.53;;;10.85;100.00
5284;BME280;15377;48.540;9.268;2023-08-07T02:55:56;97399.44;;;10.92;100.00
5284;BME280;15377;48.540;9.268;2023-08-07T02:58:22;97395.44;;;10.93;100.00
5284;BME280;15377;48.540;9.268;2023-08-07T03:00:47;97388.78;;;10.85;100.00
5284;BME280;15377;48.540;9.268;2023-08-07T03:03:12;97394.28;;;10.99;100.00
5284;BME280;15377;48.540;9.268;2023-08-07T03:05:38;97397.72;;;11.09;100.00
5284;BME280;15377;48.540;9.268;2023-08-07T03:08:03;97395.44;;;10.93;100.00
5284;BME280;15377;48.540;9.268;2023-08-07T03:10:29;97407.88;;;11.03;100.00
5284;BME280;15377;48.540;9.268;2023-08-07T03:12:54;97397.53;;;10.98;100.00
5284;BME280;15377;48.540;9.268;2023-08-07T03:15:19;97415.00;;;11.09;100.00
5284;BME280;15377;48.540;9.268;2023-08-07T03:17:45;97397.53;;;10.98;100.00
5284;BME280;15377;48.540;9.268;2023-08-07T03:20:10;97422.59;;;11.00;100.00
5284;BME280;15377;48.540;9.268;2023-08-07T03:22:36;97414.06;;;10.98;100.00
5284;BME280;15377;48.540;9.268;2023-08-07T03:25:01;97429.44;;;11.04;100.00
5284;BME280;15377;48.540;9.268;2023-08-07T03:27:27;97427.72;;;11.07;100.00
5284;BME280;15377;48.540;9.268;2023-08-07T03:29:53;97425.34;;;11.00;100.00
5284;BME280;15377;48.540;9.268;2023-08-07T03:32:18;97421.63;;;11.03;100.00
5284;BME280;15377;48.540;9.268;2023-08-07T03:34:44;97430.56;;;11.12;100.00
5284;BME280;15377;48.540;9.268;2023-08-07T03:37:09;97411.13;;;11.01;100.00
5284;BME280;15377;48.540;9.268;2023-08-07T03:39:34;97421.84;;;11.14;100.00
5284;BME280;15377;48.540;9.268;2023-08-07T03:41:59;97407.22;;;11.08;100.00
5284;BME280;15377;48.540;9.268;2023-08-07T03:44:25;97421.53;;;11.12;100.00
5284;BME280;15377;48.540;9.268;2023-08-07T03:46:50;97445.00;;;11.07;100.00
5284;BME280;15377;48.540;9.268;2023-08-07T03:49:16;97438.53;;;10.96;100.00
5284;BME280;15377;48.540;9.268;2023-08-07T03:51:42;97440.00;;;11.06;100.00
5284;BME280;15377;48.540;9.268;2023-08-07T03:54:08;97436.38;;;11.00;100.00
5284;BME280;15377;48.540;9.268;2023-08-07T03:56:33;97439.88;;;11.00;100.00
5284;BME280;15377;48.540;9.268;2023-08-07T03:59:02;97430.94;;;11.05;100.00
5284;BME280;15377;48.540;9.268;2023-08-07T04:01:27;97431.13;;;11.02;100.00
5284;BME280;15377;48.540;9.268;2023-08-07T04:03:53;97433.25;;;11.07;100.00
5284;BME280;15377;48.540;9.268;2023-08-07T04:06:18;97435.81;;;11.10;100.00
5284;BME280;15377;48.540;9.268;2023-08-07T04:08:47;97441.03;;;11.23;100.00
5284;BME280;15377;48.540;9.268;2023-08-07T04:11:12;97430.75;;;11.09;100.00
5284;BME280;15377;48.540;9.268;2023-08-07T04:13:38;97441.41;;;11.16;100.00
5284;BME280;15377;48.540;9.268;2023-08-07T04:16:04;97441.69;;;11.18;100.00
5284;BME280;15377;48.540;9.268;2023-08-07T04:18:30;97441.22;;;11.19;100.00
5284;BME280;15377;48.540;9.268;2023-08-07T04:20:56;97441.78;;;11.09;100.00
5284;BME280;15377;48.540;9.268;2023-08-07T04:23:22;97447.47;;;11.20;100.00
5284;BME280;15377;48.540;9.268;2023-08-07T04:25:48;97434.38;;;11.15;100.00
5284;BME280;15377;48.540;9.268;2023-08-07T04:28:13;97441.03;;;11.23;100.00
5284;BME280;15377;48.540;9.268;2023-08-07T04:30:40;97435.31;;;11.12;100.00
5284;BME280;15377;48.540;9.268;2023-08-07T04:33:05;97449.22;;;11.17;100.00
5284;BME280;15377;48.540;9.268;2023-08-07T04:35:31;97441.69;;;11.18;100.00
5284;BME280;15377;48.540;9.268;2023-08-07T04:37:56;97447.47;;;11.20;100.00
5284;BME280;15377;48.540;9.268;2023-08-07T04:40:22;97442.47;;;11.18;100.00
5284;BME280;15377;48.540;9.268;2023-08-07T04:42:49;97452.72;;;11.18;100.00
5284;BME280;15377;48.540;9.268;2023-08-07T04:45:14;97456.41;;;11.15;100.00
5284;BME280;15377;48.540;9.268;2023-08-07T04:47:39;97442.75;;;11.06;100.00
5284;BME280;15377;48.540;9.268;2023-08-07T04:50:06;97448.81;;;11.10;100.00
5284;BME280;15377;48.540;9.268;2023-08-07T04:52:32;97444.44;;;11.03;100.00
5284;BME280;15377;48.540;9.268;2023-08-07T04:54:57;97441.88;;;11.00;100.00
5284;BME280;15377;48.540;9.268;2023-08-07T04:57:22;97463.53;;;11.07;100.00
5284;BME280;15377;48.540;9.268;2023-08-07T04:59:48;97429.81;;;10.83;100.00
5284;BME280;15377;48.540;9.268;2023-08-07T05:02:13;97466.94;;;11.02;100.00
5284;BME280;15377;48.540;9.268;2023-08-07T05:04:39;97463.63;;;10.98;100.00
5284;BME280;15377;48.540;9.268;2023-08-07T05:07:05;97459.03;;;10.95;100.00
5284;BME280;15377;48.540;9.268;2023-08-07T05:09:30;97452.19;;;10.90;100.00
5284;BME280;15377;48.540;9.268;2023-08-07T05:11:56;97464.59;;;11.09;100.00
5284;BME280;15377;48.540;9.268;2023-08-07T05:14:21;97455.47;;;11.03;100.00
5284;BME280;15377;48.540;9.268;2023-08-07T05:16:47;97447.28;;;11.09;100.00
5284;BME280;15377;48.540;9.268;2023-08-07T05:19:13;97444.81;;;11.11;100.00
5284;BME280;15377;48.540;9.268;2023-08-07T05:21:38;97466.56;;;11.23;100.00
5284;BME280;15377;48.540;9.268;2023-08-07T05:24:04;97462.28;;;11.22;100.00
5284;BME280;15377;48.540;9.268;2023-08-07T05:26:30;97472.19;;;11.29;100.00
5284;BME280;15377;48.540;9.268;2023-08-07T05:28:55;97475.88;;;11.26;100.00
5284;BME280;15377;48.540;9.268;2023-08-07T05:31:23;97465.53;;;11.21;100.00
5284;BME280;15377;48.540;9.268;2023-08-07T05:33:49;97473.41;;;11.28;100.00
5284;BME280;15377;48.540;9.268;2023-08-07T05:36:14;97457.56;;;11.23;100.00
5284;BME280;15377;48.540;9.268;2023-08-07T05:38:40;97487.22;;;11.42;100.00
5284;BME280;15377;48.540;9.268;2023-08-07T05:41:05;97490.06;;;11.48;100.00
5284;BME280;15377;48.540;9.268;2023-08-07T05:43:30;97484.34;;;11.51;100.00
5284;BME280;15377;48.540;9.268;2023-08-07T05:45:55;97481.78;;;11.62;100.00
5284;BME280;15377;48.540;9.268;2023-08-07T05:48:21;97487.31;;;11.77;100.00
5284;BME280;15377;48.540;9.268;2023-08-07T05:50:46;97502.66;;;11.98;100.00
5284;BME280;15377;48.540;9.268;2023-08-07T05:53:11;97495.25;;;12.04;100.00
5284;BME280;15377;48.540;9.268;2023-08-07T05:55:39;97494.59;;;12.09;100.00
5284;BME280;15377;48.540;9.268;2023-08-07T05:58:06;97501.75;;;12.21;100.00
5284;BME280;15377;48.540;9.268;2023-08-07T06:00:31;97496.81;;;12.25;100.00
5284;BME280;15377;48.540;9.268;2023-08-07T06:02:57;97509.91;;;12.30;100.00
5284;BME280;15377;48.540;9.268;2023-08-07T06:05:22;97508.19;;;12.32;100.00
5284;BME280;15377;48.540;9.268;2023-08-07T06:07:48;97520.56;;;12.37;100.00
5284;BME280;15377;48.540;9.268;2023-08-07T06:10:13;97519.88;;;12.42;100.00
5284;BME280;15377;48.540;9.268;2023-08-07T06:12:38;97520.34;;;12.40;100.00
5284;BME280;15377;48.540;9.268;2023-08-07T06:15:04;97507.25;;;12.35;100.00
5284;BME280;15377;48.540;9.268;2023-08-07T06:17:30;97513.78;;;12.38;100.00
5284;BME280;15377;48.540;9.268;2023-08-07T06:19:55;97525.69;;;12.44;100.00
5284;BME280;15377;48.540;9.268;2023-08-07T06:22:21;97534.19;;;12.60;100.00
5284;BME280;15377;48.540;9.268;2023-08-07T06:24:46;97531.50;;;12.66;100.00
5284;BME280;15377;48.540;9.268;2023-08-07T06:27:11;97541.88;;;12.91;100.00
5284;BME280;15377;48.540;9.268;2023-08-07T06:29:37;97519.03;;;12.90;100.00
5284;BME280;15377;48.540;9.268;2023-08-07T06:32:02;97544.94;;;13.13;100.00
5284;BME280;15377;48.540;9.268;2023-08-07T06:34:28;97543.69;;;13.14;100.00
5284;BME280;15377;48.540;9.268;2023-08-07T06:36:53;97528.50;;;13.04;100.00
5284;BME280;15377;48.540;9.268;2023-08-07T06:39:19;97537.81;;;13.06;100.00
5284;BME280;15377;48.540;9.268;2023-08-07T06:41:44;97537.19;;;13.17;100.00
5284;BME280;15377;48.540;9.268;2023-08-07T06:44:10;97543.53;;;13.23;100.00
5284;BME280;15377;48.540;9.268;2023-08-07T06:46:35;97541.47;;;13.18;100.00
5284;BME280;15377;48.540;9.268;2023-08-07T06:49:00;97542.28;;;13.24;100.00
5284;BME280;15377;48.540;9.268;2023-08-07T06:51:26;97533.84;;;13.33;100.00
5284;BME280;15377;48.540;9.268;2023-08-07T06:53:51;97546.63;;;13.56;100.00
5284;BME280;15377;48.540;9.268;2023-08-07T06:56:17;97529.94;;;13.45;100.00
5284;BME280;15377;48.540;9.268;2023-08-07T06:58:43;97535.16;;;13.63;100.00
5284;BME280;15377;48.540;9.268;2023-08-07T07:01:08;97540.25;;;13.70;100.00
5284;BME280;15377;48.540;9.268;2023-08-07T07:03:33;97531.13;;;13.64;100.00
5284;BME280;15377;48.540;9.268;2023-08-07T07:05:59;97537.91;;;13.63;100.00
5284;BME280;15377;48.540;9.268;2023-08-07T07:08:24;97542.75;;;13.68;100.00
5284;BME280;15377;48.540;9.268;2023-08-07T07:10:49;97537.31;;;13.79;100.00
5284;BME280;15377;48.540;9.268;2023-08-07T07:13:15;97531.78;;;13.79;100.00
5284;BME280;15377;48.540;9.268;2023-08-07T07:15:40;97539.28;;;14.04;100.00
5284;BME280;15377;48.540;9.268;2023-08-07T07:18:06;97545.75;;;14.21;100.00
5284;BME280;15377;48.540;9.268;2023-08-07T07:20:31;97543.94;;;14.18;100.00
5284;BME280;15377;48.540;9.268;2023-08-07T07:22:56;97537.56;;;14.12;100.00
5284;BME280;15377;48.540;9.268;2023-08-07T07:25:22;97545.75;;;14.21;100.00
5284;BME280;15377;48.540;9.268;2023-08-07T07:27:47;97549.97;;;14.16;100.00
5284;BME280;15377;48.540;9.268;2023-08-07T07:30:12;97565.91;;;14.27;100.00
5284;BME280;15377;48.540;9.268;2023-08-07T07:32:38;97553.53;;;14.22;100.00
5284;BME280;15377;48.540;9.268;2023-08-07T07:35:04;97564.50;;;14.37;100.00
5284;BME280;15377;48.540;9.268;2023-08-07T07:37:30;97565.09;;;14.52;100.00
5284;BME280;15377;48.540;9.268;2023-08-07T07:39:56;97560.00;;;14.45;100.00
5284;BME280;15377;48.540;9.268;2023-08-07T07:42:21;97562.78;;;14.45;100.00
5284;BME280;15377;48.540;9.268;2023-08-07T07:44:47;97545.38;;;14.39;100.00
5284;BME280;15377;48.540;9.268;2023-08-07T07:47:13;97573.22;;;14.61;100.00
5284;BME280;15377;48.540;9.268;2023-08-07T07:49:38;97564.59;;;14.53;100.00
5284;BME280;15377;48.540;9.268;2023-08-07T07:52:04;97571.28;;;14.77;100.00
5284;BME280;15377;48.540;9.268;2023-08-07T07:54:29;97570.25;;;14.70;100.00
5284;BME280;15377;48.540;9.268;2023-08-07T07:56:55;97573.09;;;14.86;100.00
5284;BME280;15377;48.540;9.268;2023-08-07T07:59:20;97554.00;;;14.93;100.00
5284;BME280;15377;48.540;9.268;2023-08-07T08:01:45;97531.84;;;14.99;100.00
5284;BME280;15377;48.540;9.268;2023-08-07T08:04:12;97562.00;;;15.33;100.00
5284;BME280;15377;48.540;9.268;2023-08-07T08:06:39;97570.78;;;15.32;100.00
5284;BME280;15377;48.540;9.268;2023-08-07T08:09:05;97581.41;;;15.33;100.00
5284;BME280;15377;48.540;9.268;2023-08-07T08:11:31;97574.88;;;15.42;100.00
5284;BME280;15377;48.540;9.268;2023-08-07T08:13:56;97582.22;;;15.61;100.00
5284;BME280;15377;48.540;9.268;2023-08-07T08:16:22;97589.81;;;15.55;100.00
5284;BME280;15377;48.540;9.268;2023-08-07T08:18:47;97588.75;;;15.47;100.00
5284;BME280;15377;48.540;9.268;2023-08-07T08:21:12;97585.78;;;15.73;100.00
5284;BME280;15377;48.540;9.268;2023-08-07T08:23:38;97577.75;;;15.69;100.00
5284;BME280;15377;48.540;9.268;2023-08-07T08:26:03;97576.25;;;15.90;100.00
5284;BME280;15377;48.540;9.268;2023-08-07T08:28:29;97590.13;;;16.23;100.00
5284;BME280;15377;48.540;9.268;2023-08-07T08:30:54;97587.88;;;16.05;100.00
5284;BME280;15377;48.540;9.268;2023-08-07T08:33:19;97585.28;;;15.74;100.00
5284;BME280;15377;48.540;9.268;2023-08-07T08:35:45;97589.03;;;15.55;100.00
5284;BME280;15377;48.540;9.268;2023-08-07T08:38:10;97593.09;;;15.65;100.00
5284;BME280;15377;48.540;9.268;2023-08-07T08:40:37;97586.31;;;15.71;100.00
5284;BME280;15377;48.540;9.268;2023-08-07T08:43:04;97603.50;;;15.97;100.00
5284;BME280;15377;48.540;9.268;2023-08-07T08:45:30;97589.63;;;15.86;100.00
5284;BME280;15377;48.540;9.268;2023-08-07T08:48:01;97546.69;;;15.65;100.00
5284;BME280;15377;48.540;9.268;2023-08-07T08:50:28;97594.44;;;16.02;100.00
5284;BME280;15377;48.540;9.268;2023-08-07T08:52:55;97608.81;;;16.01;100.00
5284;BME280;15377;48.540;9.268;2023-08-07T08:55:21;97595.94;;;16.14;100.00
5284;BME280;15377;48.540;9.268;2023-08-07T08:57:47;97591.41;;;16.06;100.00
5284;BME280;15377;48.540;9.268;2023-08-07T09:00:14;97604.78;;;16.13;100.00
5284;BME280;15377;48.540;9.268;2023-08-07T09:02:51;97581.28;;;16.36;100.00
5284;BME280;15377;48.540;9.268;2023-08-07T09:05:18;97599.22;;;16.35;100.00
5284;BME280;15377;48.540;9.268;2023-08-07T09:07:48;97595.47;;;16.32;100.00
5284;BME280;15377;48.540;9.268;2023-08-07T09:10:14;97596.75;;;16.42;100.00
5284;BME280;15377;48.540;9.268;2023-08-07T09:12:42;97590.91;;;16.68;100.00
5284;BME280;15377;48.540;9.268;2023-08-07T09:15:11;97598.97;;;16.82;100.00
5284;BME280;15377;48.540;9.268;2023-08-07T09:17:39;97620.16;;;16.96;100.00
5284;BME280;15377;48.540;9.268;2023-08-07T09:20:09;97606.78;;;16.95;100.00
5284;BME280;15377;48.540;9.268;2023-08-07T09:22:41;97608.34;;;16.68;100.00
5284;BME280;15377;48.540;9.268;2023-08-07T09:25:08;97606.56;;;16.76;100.00
5284;BME280;15377;48.540;9.268;2023-08-07T09:27:36;97591.34;;;16.94;100.00
5284;BME280;15377;48.540;9.268;2023-08-07T09:30:02;97606.50;;;16.98;100.00
5284;BME280;15377;48.540;9.268;2023-08-07T09:32:28;97589.25;;;17.16;100.00
5284;BME280;15377;48.540;9.268;2023-08-07T09:34:53;97601.31;;;17.46;100.00
5284;BME280;15377;48.540;9.268;2023-08-07T09:37:18;97608.81;;;17.62;100.00
5284;BME280;15377;48.540;9.268;2023-08-07T09:39:44;97613.38;;;17.60;100.00
5284;BME280;15377;48.540;9.268;2023-08-07T09:42:16;97616.81;;;17.82;100.00
5284;BME280;15377;48.540;9.268;2023-08-07T09:44:42;97609.59;;;17.63;100.00
5284;BME280;15377;48.540;9.268;2023-08-07T09:47:18;97610.38;;;17.58;100.00
5284;BME280;15377;48.540;9.268;2023-08-07T09:49:44;97622.41;;;17.82;100.00
5284;BME280;15377;48.540;9.268;2023-08-07T09:52:12;97619.97;;;17.62;100.00
5284;BME280;15377;48.540;9.268;2023-08-07T09:54:43;97620.19;;;17.64;100.00
5284;BME280;15377;48.540;9.268;2023-08-07T09:57:08;97618.69;;;17.63;100.00
5284;BME280;15377;48.540;9.268;2023-08-07T09:59:34;97622.59;;;17.90;100.00
5284;BME280;15377;48.540;9.268;2023-08-07T10:02:01;97626.47;;;18.51;100.00
5284;BME280;15377;48.540;9.268;2023-08-07T10:04:28;97623.94;;;18.53;100.00
5284;BME280;15377;48.540;9.268;2023-08-07T10:06:54;97641.38;;;18.24;100.00
5284;BME280;15377;48.540;9.268;2023-08-07T10:09:23;97628.91;;;17.44;99.95
5284;BME280;15377;48.540;9.268;2023-08-07T10:11:51;97635.69;;;17.54;98.35
5284;BME280;15377;48.540;9.268;2023-08-07T10:14:17;97653.16;;;17.55;95.88
5284;BME280;15377;48.540;9.268;2023-08-07T10:16:43;97645.69;;;17.79;94.62
5284;BME280;15377;48.540;9.268;2023-08-07T10:19:10;97647.91;;;17.86;96.26
5284;BME280;15377;48.540;9.268;2023-08-07T10:21:38;97640.16;;;17.68;94.39
5284;BME280;15377;48.540;9.268;2023-08-07T10:24:05;97651.47;;;17.81;96.62
5284;BME280;15377;48.540;9.268;2023-08-07T10:26:35;97629.59;;;17.50;95.71
5284;BME280;15377;48.540;9.268;2023-08-07T10:29:03;97637.91;;;17.67;94.30
5284;BME280;15377;48.540;9.268;2023-08-07T10:31:30;97652.66;;;18.72;94.94
5284;BME280;15377;48.540;9.268;2023-08-07T10:33:56;97631.88;;;18.44;91.49
5284;BME280;15377;48.540;9.268;2023-08-07T10:36:22;97654.00;;;18.25;95.69
5284;BME280;15377;48.540;9.268;2023-08-07T10:39:06;97637.97;;;17.96;95.94
5284;BME280;15377;48.540;9.268;2023-08-07T10:41:38;97657.25;;;17.94;95.58
5284;BME280;15377;48.540;9.268;2023-08-07T10:44:04;97652.00;;;18.20;92.94
5284;BME280;15377;48.540;9.268;2023-08-07T10:46:46;97634.88;;;19.04;86.06
5284;BME280;15377;48.540;9.268;2023-08-07T10:49:30;97637.97;;;19.25;85.60
5284;BME280;15377;48.540;9.268;2023-08-07T10:51:56;97660.47;;;18.44;90.00
5284;BME280;15377;48.540;9.268;2023-08-07T10:54:23;97658.00;;;17.95;91.41
5284;BME280;15377;48.540;9.268;2023-08-07T10:56:53;97641.44;;;17.67;92.30
5284;BME280;15377;48.540;9.268;2023-08-07T10:59:19;97651.78;;;17.72;95.89
5284;BME280;15377;48.540;9.268;2023-08-07T11:01:51;97652.31;;;17.65;96.68
5284;BME280;15377;48.540;9.268;2023-08-07T11:04:16;97647.25;;;18.85;87.45
5284;BME280;15377;48.540;9.268;2023-08-07T11:06:43;97661.63;;;18.89;88.23
5284;BME280;15377;48.540;9.268;2023-08-07T11:09:11;97643.34;;;19.84;86.74
5284;BME280;15377;48.540;9.268;2023-08-07T11:11:38;97635.59;;;19.53;82.88
5284;BME280;15377;48.540;9.268;2023-08-07T11:14:13;97660.25;;;21.23;82.56
5284;BME280;15377;48.540;9.268;2023-08-07T11:16:40;97637.84;;;21.36;81.54
5284;BME280;15377;48.540;9.268;2023-08-07T11:19:06;97651.63;;;21.08;78.44
5284;BME280;15377;48.540;9.268;2023-08-07T11:21:32;97649.22;;;19.80;78.50
5284;BME280;15377;48.540;9.268;2023-08-07T11:23:58;97652.78;;;18.61;79.70
5284;BME280;15377;48.540;9.268;2023-08-07T11:26:24;97663.03;;;18.02;86.65
5284;BME280;15377;48.540;9.268;2023-08-07T11:28:56;97647.28;;;17.64;87.20
5284;BME280;15377;48.540;9.268;2023-08-07T11:31:22;97663.09;;;18.37;88.37
5284;BME280;15377;48.540;9.268;2023-08-07T11:33:54;97656.84;;;18.84;88.51
5284;BME280;15377;48.540;9.268;2023-08-07T11:36:20;97650.13;;;19.70;88.26
5284;BME280;15377;48.540;9.268;2023-08-07T11:38:45;97654.19;;;19.26;84.54
5284;BME280;15377;48.540;9.268;2023-08-07T11:41:16;97653.41;;;19.02;84.42
5284;BME280;15377;48.540;9.268;2023-08-07T11:43:42;97663.25;;;18.50;90.13
5284;BME280;15377;48.540;9.268;2023-08-07T11:46:09;97663.56;;;17.43;92.26
5284;BME280;15377;48.540;9.268;2023-08-07T11:48:37;97666.06;;;17.41;96.97
5284;BME280;15377;48.540;9.268;2023-08-07T11:51:03;97651.34;;;17.57;97.17
5284;BME280;15377;48.540;9.268;2023-08-07T11:53:32;97651.09;;;17.55;95.22
5284;BME280;15377;48.540;9.268;2023-08-07T11:55:58;97651.41;;;17.46;95.88
5284;BME280;15377;48.540;9.268;2023-08-07T11:58:25;97651.59;;;17.59;95.11
5284;BME280;15377;48.540;9.268;2023-08-07T12:00:51;97655.38;;;17.67;95.18
5284;BME280;15377;48.540;9.268;2023-08-07T12:03:24;97642.00;;;17.55;97.68
5284;BME280;15377;48.540;9.268;2023-08-07T12:05:50;97649.13;;;17.39;98.37
5284;BME280;15377;48.540;9.268;2023-08-07T12:08:16;97661.56;;;17.27;98.94
5284;BME280;15377;48.540;9.268;2023-08-07T12:10:41;97664.06;;;17.25;100.00
5284;BME280;15377;48.540;9.268;2023-08-07T12:13:08;97669.13;;;17.27;100.00
5284;BME280;15377;48.540;9.268;2023-08-07T12:15:33;97669.69;;;17.03;100.00
5284;BME280;15377;48.540;9.268;2023-08-07T12:18:02;97662.59;;;17.02;100.00
5284;BME280;15377;48.540;9.268;2023-08-07T12:20:28;97663.16;;;16.73;100.00
5284;BME280;15377;48.540;9.268;2023-08-07T12:22:54;97673.25;;;16.54;100.00
5284;BME280;15377;48.540;9.268;2023-08-07T12:25:20;97673.25;;;16.43;100.00
5284;BME280;15377;48.540;9.268;2023-08-07T12:27:45;97686.91;;;16.41;100.00
5284;BME280;15377;48.540;9.268;2023-08-07T12:30:13;97672.69;;;16.28;100.00
5284;BME280;15377;48.540;9.268;2023-08-07T12:32:38;97692.16;;;16.28;100.00
5284;BME280;15377;48.540;9.268;2023-08-07T12:35:04;97698.69;;;16.20;100.00
5284;BME280;15377;48.540;9.268;2023-08-07T12:37:33;97706.53;;;16.21;100.00
5284;BME280;15377;48.540;9.268;2023-08-07T12:39:59;97690.06;;;16.01;100.00
5284;BME280;15377;48.540;9.268;2023-08-07T12:42:24;97688.28;;;15.98;100.00
5284;BME280;15377;48.540;9.268;2023-08-07T12:44:49;97700.94;;;16.05;100.00
5284;BME280;15377;48.540;9.268;2023-08-07T12:47:15;97699.44;;;16.09;100.00
5284;BME280;15377;48.540;9.268;2023-08-07T12:49:40;97705.00;;;16.09;100.00
5284;BME280;15377;48.540;9.268;2023-08-07T12:52:06;97707.28;;;16.22;100.00
5284;BME280;15377;48.540;9.268;2023-08-07T12:54:31;97701.25;;;16.34;100.00
5284;BME280;15377;48.540;9.268;2023-08-07T12:56:57;97716.72;;;16.57;100.00
5284;BME280;15377;48.540;9.268;2023-08-07T12:59:22;97710.38;;;16.57;100.00
5284;BME280;15377;48.540;9.268;2023-08-07T13:01:48;97704.09;;;16.67;100.00